createdAt,value
2022-11-26T00:02:22.634Z,2.53
2022-11-26T00:04:50.476Z,2.20
2022-11-26T00:07:22.950Z,2.13
2022-11-26T00:09:50.535Z,1.90
2022-11-26T00:12:28.806Z,2.00
2022-11-26T00:14:55.585Z,2.23
2022-11-26T00:17:23.887Z,2.13
2022-11-26T00:19:50.630Z,1.70
2022-11-26T00:22:30.856Z,2.13
2022-11-26T00:24:58.649Z,2.07
2022-11-26T00:27:28.114Z,1.97
2022-11-26T00:29:55.614Z,1.87
2022-11-26T00:32:26.417Z,1.83
2022-11-26T00:34:53.945Z,2.50
2022-11-26T00:37:31.394Z,2.00
2022-11-26T00:39:58.269Z,2.40
2022-11-26T00:42:25.003Z,1.87
2022-11-26T00:44:51.677Z,2.67
2022-11-26T00:47:18.433Z,2.10
2022-11-26T00:49:45.176Z,2.10
2022-11-26T00:52:34.757Z,2.10
2022-11-26T00:55:29.893Z,2.00
2022-11-26T00:57:58.578Z,1.97
2022-11-26T01:00:35.017Z,2.27
2022-11-26T01:03:03.081Z,1.60
2022-11-26T01:05:33.481Z,1.97
2022-11-26T01:08:15.293Z,1.77
2022-11-26T01:10:42.018Z,2.20
2022-11-26T01:13:11.060Z,2.17
2022-11-26T01:15:37.837Z,2.13
2022-11-26T01:18:18.184Z,1.80
2022-11-26T01:20:45.438Z,2.57
2022-11-26T01:23:16.236Z,2.27
2022-11-26T01:25:43.923Z,2.57
2022-11-26T01:28:13.914Z,2.27
2022-11-26T01:30:41.810Z,2.40
2022-11-26T01:33:08.721Z,3.03
2022-11-26T01:35:37.192Z,2.47
2022-11-26T01:38:05.286Z,1.90
2022-11-26T01:40:57.590Z,1.90
2022-11-26T01:43:39.859Z,2.10
2022-11-26T01:46:19.238Z,2.77
2022-11-26T01:48:48.583Z,1.83
2022-11-26T01:51:26.398Z,2.23
2022-11-26T01:53:59.924Z,1.63
2022-11-26T01:56:48.932Z,2.10
2022-11-26T01:59:40.392Z,2.33
2022-11-26T02:02:07.357Z,2.40
2022-11-26T02:05:09.663Z,2.53
2022-11-26T02:07:37.435Z,2.40
2022-11-26T02:10:05.321Z,2.10
2022-11-26T02:12:32.789Z,2.33
2022-11-26T02:14:59.926Z,3.00
2022-11-26T02:17:32.330Z,2.30
2022-11-26T02:20:47.322Z,2.37
2022-11-26T02:24:07.139Z,2.77
2022-11-26T02:27:08.210Z,2.13
2022-11-26T02:30:07.107Z,2.27
2022-11-26T02:33:16.949Z,2.10
2022-11-26T02:35:49.811Z,2.97
2022-11-26T02:38:26.600Z,2.40
2022-11-26T02:40:53.577Z,2.47
2022-11-26T02:43:40.332Z,2.03
2022-11-26T02:46:18.173Z,2.10
2022-11-26T02:48:51.848Z,2.93
2022-11-26T02:51:39.676Z,2.27
2022-11-26T02:54:08.598Z,1.93
2022-11-26T02:56:36.067Z,2.37
2022-11-26T02:59:03.890Z,3.27
2022-11-26T03:02:18.266Z,2.53
2022-11-26T03:04:53.023Z,2.33
2022-11-26T03:07:21.042Z,3.10
2022-11-26T03:10:01.432Z,2.27
2022-11-26T03:12:31.600Z,2.70
2022-11-26T03:14:58.400Z,2.50
2022-11-26T03:17:25.150Z,2.50
2022-11-26T03:19:52.150Z,3.17
2022-11-26T03:22:18.927Z,3.10
2022-11-26T03:24:45.643Z,3.20
2022-11-26T03:27:12.387Z,3.70
2022-11-26T03:29:39.083Z,3.17
2022-11-26T03:32:06.297Z,3.20
2022-11-26T03:34:33.295Z,3.37
2022-11-26T03:37:00.031Z,3.53
2022-11-26T03:39:26.719Z,3.40
2022-11-26T03:41:53.527Z,3.47
2022-11-26T03:44:22.915Z,3.50
2022-11-26T03:46:49.642Z,3.30
2022-11-26T03:49:16.407Z,4.00
2022-11-26T03:51:43.156Z,3.73
2022-11-26T03:54:09.998Z,3.37
2022-11-26T03:56:36.730Z,4.17
2022-11-26T03:59:03.936Z,3.83
2022-11-26T04:01:30.972Z,3.70
2022-11-26T04:03:59.818Z,3.93
2022-11-26T04:06:26.711Z,3.70
2022-11-26T04:08:53.575Z,4.03
2022-11-26T04:11:20.234Z,4.30
2022-11-26T04:13:47.123Z,4.53
2022-11-26T04:16:13.915Z,4.13
2022-11-26T04:18:41.030Z,4.00
2022-11-26T04:21:08.310Z,4.37
2022-11-26T04:23:36.572Z,4.33
2022-11-26T04:26:03.868Z,4.20
2022-11-26T04:28:30.652Z,4.10
2022-11-26T04:31:00.515Z,4.23
2022-11-26T04:33:27.247Z,4.60
2022-11-26T04:35:56.179Z,4.30
2022-11-26T04:38:25.893Z,4.10
2022-11-26T04:40:53.646Z,3.67
2022-11-26T04:43:20.477Z,4.03
2022-11-26T04:45:47.236Z,4.47
2022-11-26T04:48:14.319Z,4.40
2022-11-26T04:50:41.183Z,4.20
2022-11-26T04:53:08.140Z,4.17
2022-11-26T04:55:34.870Z,3.93
2022-11-26T04:58:01.539Z,5.10
2022-11-26T05:00:28.505Z,4.37
2022-11-26T05:02:55.342Z,4.00
2022-11-26T05:05:22.181Z,3.97
2022-11-26T05:07:49.019Z,4.83
2022-11-26T05:10:15.745Z,3.80
2022-11-26T05:12:46.471Z,4.10
2022-11-26T05:15:13.327Z,4.13
2022-11-26T05:17:40.894Z,4.87
2022-11-26T05:20:08.730Z,4.63
2022-11-26T05:22:35.574Z,4.80
2022-11-26T05:25:02.757Z,4.63
2022-11-26T05:27:29.636Z,5.00
2022-11-26T05:29:56.314Z,5.70
2022-11-26T05:32:23.216Z,5.07
2022-11-26T05:34:49.927Z,4.87
2022-11-26T05:37:16.698Z,5.43
2022-11-26T05:39:43.550Z,6.03
2022-11-26T05:42:10.713Z,4.67
2022-11-26T05:44:38.347Z,5.00
2022-11-26T05:47:05.268Z,5.53
2022-11-26T05:49:32.197Z,5.60
2022-11-26T05:51:59.106Z,5.00
2022-11-26T05:54:40.556Z,5.57
2022-11-26T05:57:07.427Z,5.23
2022-11-26T05:59:34.176Z,5.57
2022-11-26T06:02:00.937Z,5.37
2022-11-26T06:04:27.927Z,5.13
2022-11-26T06:06:54.692Z,4.80
2022-11-26T06:09:21.519Z,5.50
2022-11-26T06:11:50.448Z,6.33
2022-11-26T06:14:17.864Z,5.73
2022-11-26T06:16:44.751Z,4.90
2022-11-26T06:19:12.319Z,5.53
2022-11-26T06:21:39.059Z,6.00
2022-11-26T06:24:07.168Z,5.80
2022-11-26T06:26:33.892Z,5.97
2022-11-26T06:29:00.686Z,6.00
2022-11-26T06:31:27.531Z,6.93
2022-11-26T06:33:58.415Z,6.07
2022-11-26T06:36:25.288Z,6.47
2022-11-26T06:38:52.283Z,6.40
2022-11-26T06:41:19.109Z,6.00
2022-11-26T06:43:47.189Z,6.07
2022-11-26T06:46:13.984Z,5.90
2022-11-26T06:48:43.539Z,5.67
2022-11-26T06:51:15.210Z,6.17
2022-11-26T06:53:42.499Z,6.67
2022-11-26T06:56:18.874Z,6.30
2022-11-26T06:58:47.783Z,6.80
2022-11-26T07:01:18.810Z,6.10
2022-11-26T07:03:45.826Z,6.60
2022-11-26T07:06:31.621Z,5.90
2022-11-26T07:09:04.401Z,5.63
2022-11-26T07:11:31.539Z,6.80
2022-11-26T07:13:58.394Z,7.07
2022-11-26T07:16:25.480Z,6.87
2022-11-26T07:19:02.216Z,6.93
2022-11-26T07:21:30.436Z,6.60
2022-11-26T07:23:58.235Z,6.70
2022-11-26T07:26:30.918Z,6.80
2022-11-26T07:29:01.791Z,7.13
2022-11-26T07:31:29.786Z,5.97
2022-11-26T07:33:57.455Z,6.63
2022-11-26T07:36:29.005Z,6.37
2022-11-26T07:39:02.575Z,5.70
2022-11-26T07:41:30.411Z,6.47
2022-11-26T07:43:57.696Z,6.50
2022-11-26T07:46:26.369Z,6.23
2022-11-26T07:48:54.727Z,6.33
2022-11-26T07:51:28.937Z,6.40
2022-11-26T07:53:58.870Z,6.63
2022-11-26T07:56:27.044Z,6.87
2022-11-26T07:58:54.101Z,6.20
2022-11-26T08:01:30.257Z,6.77
2022-11-26T08:04:00.178Z,5.70
2022-11-26T08:06:29.859Z,6.23
2022-11-26T08:09:01.867Z,6.77
2022-11-26T08:11:32.745Z,6.87
2022-11-26T08:14:11.343Z,5.83
2022-11-26T08:16:39.863Z,6.57
2022-11-26T08:19:12.378Z,6.40
2022-11-26T08:21:40.243Z,7.60
2022-11-26T08:24:12.278Z,6.20
2022-11-26T08:26:43.865Z,6.57
2022-11-26T08:29:12.533Z,6.57
2022-11-26T08:31:45.626Z,5.83
2022-11-26T08:34:15.876Z,5.97
2022-11-26T08:36:43.077Z,6.27
2022-11-26T08:39:15.285Z,6.10
2022-11-26T08:41:43.919Z,6.03
2022-11-26T08:44:12.952Z,6.60
2022-11-26T08:46:42.122Z,6.23
2022-11-26T08:49:13.206Z,5.93
2022-11-26T08:51:40.130Z,5.77
2022-11-26T08:54:07.513Z,6.03
2022-11-26T08:56:34.642Z,5.63
2022-11-26T08:59:02.011Z,6.50
2022-11-26T09:01:32.842Z,5.70
2022-11-26T09:04:05.446Z,5.43
2022-11-26T09:06:36.927Z,5.30
2022-11-26T09:09:17.556Z,5.63
2022-11-26T09:11:57.347Z,5.63
2022-11-26T09:14:27.908Z,5.97
2022-11-26T09:16:57.740Z,4.63
2022-11-26T09:19:25.558Z,5.43
2022-11-26T09:21:52.342Z,4.93
2022-11-26T09:24:26.183Z,6.57
2022-11-26T09:26:53.072Z,6.70
2022-11-26T09:29:24.230Z,5.23
2022-11-26T09:34:39.107Z,5.80
2022-11-26T09:37:06.249Z,5.50
2022-11-26T09:39:33.528Z,5.57
2022-11-26T09:42:26.269Z,6.00
2022-11-26T09:45:43.864Z,5.73
2022-11-26T09:48:25.883Z,5.43
2022-11-26T09:51:04.455Z,5.27
2022-11-26T09:53:40.203Z,5.53
2022-11-26T09:56:18.111Z,6.10
2022-11-26T09:59:01.864Z,5.20
2022-11-26T10:01:32.203Z,5.43
2022-11-26T10:03:59.607Z,4.83
2022-11-26T10:06:52.731Z,5.80
2022-11-26T10:09:46.671Z,5.90
2022-11-26T10:12:56.600Z,5.13
2022-11-26T10:15:42.502Z,4.67
2022-11-26T10:18:53.335Z,4.57
2022-11-26T10:24:30.496Z,5.23
2022-11-26T10:27:12.862Z,5.20
2022-11-26T10:29:49.674Z,6.27
2022-11-26T10:32:27.222Z,5.27
2022-11-26T10:34:59.019Z,4.83
2022-11-26T10:37:28.848Z,4.73
2022-11-26T10:40:13.719Z,5.30
2022-11-26T10:43:08.659Z,4.87
2022-11-26T10:45:47.775Z,4.30
2022-11-26T10:48:36.220Z,4.57
2022-11-26T10:51:09.819Z,6.23
2022-11-26T10:53:56.943Z,4.77
2022-11-26T10:56:40.430Z,5.20
2022-11-26T10:59:29.955Z,5.03
2022-11-26T11:02:21.116Z,6.77
2022-11-26T11:04:56.100Z,7.87
2022-11-26T11:07:41.617Z,7.30
2022-11-26T11:10:08.379Z,5.57
2022-11-26T11:12:46.029Z,5.73
2022-11-26T11:15:22.693Z,4.67
2022-11-26T11:18:19.459Z,4.47
2022-11-26T11:21:00.996Z,4.73
2022-11-26T11:24:06.414Z,5.30
2022-11-26T11:26:25.667Z,4.63
2022-11-26T11:29:02.546Z,5.40
2022-11-26T11:31:46.306Z,4.63
2022-11-26T11:34:44.723Z,4.87
2022-11-26T11:37:22.167Z,4.37
2022-11-26T11:40:17.283Z,5.03
2022-11-26T11:43:04.071Z,4.57
2022-11-26T11:45:41.999Z,7.83
2022-11-26T11:48:43.570Z,5.20
2022-11-26T11:51:48.287Z,4.27
2022-11-26T11:54:30.662Z,5.77
2022-11-26T11:57:36.276Z,5.83
2022-11-26T12:00:32.427Z,4.00
2022-11-26T12:03:49.622Z,3.80
2022-11-26T12:06:56.457Z,3.43
2022-11-26T12:10:08.448Z,3.20
2022-11-26T12:12:50.667Z,4.00
2022-11-26T12:15:35.666Z,3.03
2022-11-26T12:18:41.043Z,3.70
2022-11-26T12:21:31.756Z,3.67
2022-11-26T12:24:11.468Z,3.30
2022-11-26T12:26:54.775Z,4.13
2022-11-26T12:29:38.284Z,3.70
2022-11-26T12:32:47.351Z,4.63
2022-11-26T12:35:28.986Z,3.03
2022-11-26T12:38:08.102Z,3.67
2022-11-26T12:40:44.795Z,4.07
2022-11-26T12:43:27.499Z,3.93
2022-11-26T12:46:36.994Z,3.63
2022-11-26T12:49:47.252Z,3.40
2022-11-26T12:52:13.933Z,3.67
2022-11-26T12:55:22.853Z,4.27
2022-11-26T12:58:12.550Z,4.77
2022-11-26T13:00:39.595Z,4.40
2022-11-26T13:03:13.479Z,3.97
2022-11-26T13:05:55.591Z,3.47
2022-11-26T13:09:03.724Z,4.23
2022-11-26T13:11:35.303Z,3.80
2022-11-26T13:14:27.117Z,4.03
2022-11-26T13:17:14.144Z,3.50
2022-11-26T13:20:00.287Z,3.83
2022-11-26T13:22:35.782Z,4.07
2022-11-26T13:25:36.123Z,4.23
2022-11-26T13:28:21.787Z,4.20
2022-11-26T13:31:27.684Z,4.20
2022-11-26T13:34:10.687Z,4.87
2022-11-26T13:37:12.248Z,4.57
2022-11-26T13:40:15.440Z,4.23
2022-11-26T13:43:25.448Z,3.63
2022-11-26T13:46:03.463Z,3.63
2022-11-26T13:49:06.819Z,4.40
2022-11-26T13:51:49.598Z,4.03
2022-11-26T13:54:38.077Z,3.67
2022-11-26T13:57:20.338Z,3.83
2022-11-26T14:00:02.560Z,4.33
2022-11-26T14:02:46.667Z,4.40
2022-11-26T14:05:17.374Z,4.80
2022-11-26T14:08:41.609Z,5.10
2022-11-26T14:11:09.839Z,3.50
2022-11-26T14:13:37.117Z,3.70
2022-11-26T14:16:10.221Z,3.70
2022-11-26T14:18:49.116Z,3.10
2022-11-26T14:21:20.662Z,3.10
2022-11-26T14:23:57.316Z,3.67
2022-11-26T14:26:37.871Z,3.37
2022-11-26T14:29:17.355Z,3.60
2022-11-26T14:31:54.641Z,4.10
2022-11-26T14:34:43.494Z,3.07
2022-11-26T14:37:17.376Z,3.07
2022-11-26T14:39:44.266Z,4.20
2022-11-26T14:42:18.477Z,5.13
2022-11-26T14:44:45.648Z,3.87
2022-11-26T14:47:21.606Z,4.43
2022-11-26T14:50:11.629Z,3.40
2022-11-26T14:52:41.599Z,3.87
2022-11-26T14:55:31.383Z,3.77
2022-11-26T14:58:09.144Z,3.97
2022-11-26T15:00:37.190Z,3.77
2022-11-26T15:03:04.506Z,4.50
2022-11-26T15:05:40.689Z,3.27
2022-11-26T15:08:20.239Z,3.47
2022-11-26T15:11:21.375Z,3.23
2022-11-26T15:13:56.469Z,3.13
2022-11-26T15:16:36.675Z,2.97
2022-11-26T15:19:07.726Z,3.60
2022-11-26T15:21:35.535Z,4.20
2022-11-26T15:24:08.711Z,3.33
2022-11-26T15:26:38.230Z,3.10
2022-11-26T15:29:48.991Z,3.23
2022-11-26T15:32:32.164Z,2.67
2022-11-26T15:35:03.730Z,3.17
2022-11-26T15:37:30.607Z,3.30
2022-11-26T15:40:22.465Z,2.97
2022-11-26T15:42:57.349Z,3.33
2022-11-26T15:45:40.522Z,2.83
2022-11-26T15:48:51.596Z,2.97
2022-11-26T15:51:43.228Z,2.77
2022-11-26T15:54:38.346Z,3.43
2022-11-26T15:57:32.979Z,3.10
2022-11-26T16:00:20.825Z,2.83
2022-11-26T16:02:50.071Z,3.07
2022-11-26T16:05:38.726Z,3.47
2022-11-26T16:08:30.601Z,2.80
2022-11-26T16:11:08.860Z,3.20
2022-11-26T16:13:55.998Z,3.00
2022-11-26T16:16:29.007Z,3.00
2022-11-26T16:19:14.390Z,3.43
2022-11-26T16:21:54.162Z,3.33
2022-11-26T16:24:31.408Z,3.50
2022-11-26T16:27:31.818Z,3.37
2022-11-26T16:30:17.993Z,3.40
2022-11-26T16:32:44.762Z,3.10
2022-11-26T16:35:37.666Z,3.30
2022-11-26T16:37:58.419Z,2.87
2022-11-26T16:40:25.996Z,3.00
2022-11-26T16:42:52.823Z,3.10
2022-11-26T16:45:20.348Z,2.97
2022-11-26T16:47:52.766Z,4.00
2022-11-26T16:50:35.804Z,3.57
2022-11-26T16:53:02.534Z,3.37
2022-11-26T16:55:29.423Z,3.10
2022-11-26T16:58:00.208Z,3.40
2022-11-26T17:00:27.667Z,4.20
2022-11-26T17:03:04.951Z,3.13
2022-11-26T17:05:32.304Z,3.50
2022-11-26T17:08:01.076Z,3.57
2022-11-26T17:10:36.062Z,3.60
2022-11-26T17:13:21.741Z,5.20
2022-11-26T17:15:51.593Z,3.20
2022-11-26T17:18:24.645Z,2.87
2022-11-26T17:20:54.254Z,3.53
2022-11-26T17:23:21.388Z,3.10
2022-11-26T17:26:23.312Z,3.00
2022-11-26T17:28:51.031Z,3.20
2022-11-26T17:31:18.183Z,3.33
2022-11-26T17:33:45.007Z,3.90
2022-11-26T17:36:23.440Z,3.37
2022-11-26T17:38:51.036Z,3.93
2022-11-26T17:41:18.641Z,2.80
2022-11-26T17:43:45.404Z,3.20
2022-11-26T17:46:21.570Z,3.30
2022-11-26T17:48:50.795Z,3.30
2022-11-26T17:51:20.269Z,4.00
2022-11-26T17:53:47.172Z,3.83
2022-11-26T17:56:21.493Z,4.20
2022-11-26T17:58:49.170Z,3.23
2022-11-26T18:01:17.896Z,4.10
2022-11-26T18:03:49.868Z,3.47
2022-11-26T18:06:20.690Z,4.53
2022-11-26T18:08:58.762Z,2.70
2022-11-26T18:11:52.015Z,3.77
2022-11-26T18:14:44.635Z,3.50
2022-11-26T18:17:12.594Z,4.40
2022-11-26T18:19:43.487Z,4.67
2022-11-26T18:22:20.132Z,3.60
2022-11-26T18:24:57.272Z,4.03
2022-11-26T18:27:30.488Z,3.90
2022-11-26T18:29:57.428Z,3.90
2022-11-26T18:32:24.258Z,3.63
2022-11-26T18:34:51.430Z,4.00
2022-11-26T18:37:18.539Z,3.40
2022-11-26T18:39:45.311Z,4.23
2022-11-26T18:45:01.905Z,4.47
2022-11-26T18:47:28.768Z,3.70
2022-11-26T18:49:55.489Z,3.70
2022-11-26T18:52:22.226Z,3.80
2022-11-26T18:54:49.395Z,4.30
2022-11-26T18:57:16.122Z,3.77
2022-11-26T18:59:43.135Z,3.90
2022-11-26T19:02:11.505Z,4.70
2022-11-26T19:04:39.015Z,4.50
2022-11-26T19:07:05.855Z,4.53
2022-11-26T19:09:32.626Z,4.47
2022-11-26T19:11:59.477Z,5.50
2022-11-26T19:14:26.338Z,10.97
2022-11-26T19:16:53.425Z,6.60
2022-11-26T19:19:20.435Z,6.13
2022-11-26T19:21:47.351Z,4.90
2022-11-26T19:24:15.091Z,4.67
2022-11-26T19:26:42.144Z,4.07
2022-11-26T19:29:12.111Z,4.67
2022-11-26T19:31:39.767Z,5.20
2022-11-26T19:34:12.855Z,5.30
2022-11-26T19:36:39.854Z,3.53
2022-11-26T19:39:07.480Z,3.77
2022-11-26T19:41:34.386Z,3.70
2022-11-26T19:44:03.997Z,3.23
2022-11-26T19:46:31.508Z,4.60
2022-11-26T19:48:58.489Z,4.20
2022-11-26T19:51:27.631Z,3.40
2022-11-26T19:53:56.153Z,4.10
2022-11-26T19:56:30.320Z,3.87
2022-11-26T19:59:00.187Z,4.80
2022-11-26T20:01:31.410Z,4.10
2022-11-26T20:04:01.084Z,4.33
2022-11-26T20:06:30.666Z,4.63
2022-11-26T20:08:59.346Z,3.90
2022-11-26T20:11:28.188Z,3.90
2022-11-26T20:13:58.260Z,3.60
2022-11-26T20:16:29.338Z,4.20
2022-11-26T20:18:57.467Z,3.90
2022-11-26T20:21:27.499Z,3.70
2022-11-26T20:23:58.283Z,3.90
2022-11-26T20:26:32.058Z,4.37
2022-11-26T20:29:07.507Z,5.40
2022-11-26T20:31:46.377Z,3.60
2022-11-26T20:34:16.020Z,3.93
2022-11-26T20:36:43.465Z,4.37
2022-11-26T20:39:18.325Z,4.07
2022-11-26T20:41:45.357Z,3.07
2022-11-26T20:44:13.365Z,4.33
2022-11-26T20:46:41.671Z,3.17
2022-11-26T20:49:11.471Z,3.93
2022-11-26T20:51:40.340Z,4.67
2022-11-26T20:54:07.182Z,4.03
2022-11-26T20:56:34.203Z,3.83
2022-11-26T20:59:02.126Z,4.57
2022-11-26T21:01:30.244Z,5.93
2022-11-26T21:03:58.400Z,3.67
2022-11-26T21:06:31.445Z,4.67
2022-11-26T21:09:04.424Z,3.47
2022-11-26T21:11:31.447Z,3.77
2022-11-26T21:14:01.753Z,3.23
2022-11-26T21:16:29.258Z,3.27
2022-11-26T21:18:57.515Z,3.37
2022-11-26T21:21:26.546Z,3.80
2022-11-26T21:23:54.251Z,3.93
2022-11-26T21:26:31.192Z,4.10
2022-11-26T21:28:59.883Z,3.10
2022-11-26T21:31:30.191Z,3.00
2022-11-26T21:34:04.202Z,3.37
2022-11-26T21:36:34.062Z,4.07
2022-11-26T21:39:01.477Z,3.77
2022-11-26T21:41:28.925Z,3.87
2022-11-26T21:43:55.743Z,3.50
2022-11-26T21:46:26.264Z,3.67
2022-11-26T21:48:55.027Z,3.30
2022-11-26T21:51:24.103Z,3.70
2022-11-26T21:53:53.680Z,3.77
2022-11-26T21:56:24.484Z,3.43
2022-11-26T21:58:59.316Z,3.20
2022-11-26T22:01:36.311Z,3.43
2022-11-26T22:04:16.734Z,3.37
2022-11-26T22:06:46.166Z,3.33
2022-11-26T22:09:15.535Z,3.03
2022-11-26T22:11:45.047Z,3.03
2022-11-26T22:14:15.838Z,4.03
2022-11-26T22:16:43.526Z,4.03
2022-11-26T22:19:10.948Z,2.83
2022-11-26T22:21:40.963Z,2.80
2022-11-26T22:24:15.956Z,4.07
2022-11-26T22:26:44.979Z,3.57
2022-11-26T22:29:14.888Z,3.80
2022-11-26T22:31:43.034Z,4.03
2022-11-26T22:34:16.069Z,3.80
2022-11-26T22:36:44.095Z,3.73
2022-11-26T22:39:15.136Z,3.40
2022-11-26T22:41:45.418Z,3.33
2022-11-26T22:44:13.720Z,3.77
2022-11-26T22:46:41.576Z,3.30
2022-11-26T22:49:15.899Z,3.57
2022-11-26T22:51:43.074Z,3.83
2022-11-26T22:54:13.836Z,3.30
2022-11-26T22:56:40.937Z,3.37
2022-11-26T22:59:11.187Z,3.43
2022-11-26T23:01:38.611Z,3.23
2022-11-26T23:04:20.870Z,3.27
2022-11-26T23:06:47.613Z,4.63
2022-11-26T23:09:14.634Z,4.03
2022-11-26T23:11:43.172Z,4.13
2022-11-26T23:14:11.799Z,3.80
2022-11-26T23:16:52.891Z,3.10
2022-11-26T23:19:22.085Z,3.27
2022-11-26T23:21:49.729Z,3.50
2022-11-26T23:24:17.084Z,3.20
2022-11-26T23:26:45.367Z,3.50
2022-11-26T23:29:13.230Z,2.90
2022-11-26T23:31:45.629Z,3.57
2022-11-26T23:34:13.574Z,4.07
2022-11-26T23:36:41.120Z,3.03
2022-11-26T23:39:12.210Z,3.03
2022-11-26T23:41:39.221Z,3.63
2022-11-26T23:44:06.052Z,3.10
2022-11-26T23:46:37.599Z,3.40
2022-11-26T23:49:04.669Z,3.33
2022-11-26T23:51:33.129Z,3.07
2022-11-26T23:54:00.111Z,3.07
2022-11-26T23:56:30.859Z,2.73
2022-11-26T23:59:04.291Z,3.30
